Terminal Aerodrome Forecast
Issued by NWS

Home | Current Version | Previous Version | Text Only | Print | Product List | Glossary On
Versions: 1 2 3 4 5 6 7 8 9 10 11 12 13 14 15
000
FTUS43 KIND 260500
TAFHUF
TAF
KHUF 260520Z 2606/2706 15004KT P6SM SCT025
     FM260800 18006KT 3SM BR OVC015
     FM261500 19012G23KT P6SM BKN025
     FM261900 20014G26KT P6SM VCTS BKN035CB
     FM270200 20010KT P6SM BKN025=

USA.gov is the U.S. government's official web portal to all federal, state and local government web resources and services.